sensor_id;sensor_type;location;lat;lon;timestamp;pressure;altitude;pressure_sealevel;temperature;humidity
13593;BME280;6867;50.998;4.250;2024-02-28T00:01:03;101716.44;;;6.40;75.97
13593;BME280;6867;50.998;4.250;2024-02-28T00:03:30;101621.97;;;5.63;74.82
13593;BME280;6867;50.998;4.250;2024-02-28T00:05:57;101623.59;;;5.02;75.39
13593;BME280;6867;50.998;4.250;2024-02-28T00:08:24;101650.19;;;4.57;77.24
13593;BME280;6867;50.998;4.250;2024-02-28T00:10:50;101705.66;;;5.88;76.57
13593;BME280;6867;50.998;4.250;2024-02-28T00:13:17;101566.44;;;5.32;72.97
13593;BME280;6867;50.998;4.250;2024-02-28T00:15:45;101691.72;;;6.12;75.48
13593;BME280;6867;50.998;4.250;2024-02-28T00:18:13;101619.94;;;7.44;71.13
13593;BME280;6867;50.998;4.250;2024-02-28T00:20:40;101538.91;;;5.23;72.23
13593;BME280;6867;50.998;4.250;2024-02-28T00:23:06;101621.78;;;5.20;74.51
13593;BME280;6867;50.998;4.250;2024-02-28T00:25:33;101614.41;;;6.20;73.33
13593;BME280;6867;50.998;4.250;2024-02-28T00:28:00;101666.38;;;5.72;74.36
13593;BME280;6867;50.998;4.250;2024-02-28T00:30:26;101606.84;;;4.92;74.60
13593;BME280;6867;50.998;4.250;2024-02-28T00:32:54;101666.44;;;4.54;76.15
13593;BME280;6867;50.998;4.250;2024-02-28T00:35:22;101695.59;;;4.45;77.26
13593;BME280;6867;50.998;4.250;2024-02-28T00:37:48;101700.25;;;4.34;78.09
13593;BME280;6867;50.998;4.250;2024-02-28T00:40:15;101712.59;;;4.25;78.96
13593;BME280;6867;50.998;4.250;2024-02-28T00:42:42;101701.75;;;4.46;78.37
13593;BME280;6867;50.998;4.250;2024-02-28T00:45:09;101701.78;;;4.36;79.22
13593;BME280;6867;50.998;4.250;2024-02-28T00:47:35;101701.66;;;4.75;77.88
13593;BME280;6867;50.998;4.250;2024-02-28T00:50:02;101674.91;;;4.39;77.95
13593;BME280;6867;50.998;4.250;2024-02-28T00:52:30;101688.09;;;4.21;78.93
13593;BME280;6867;50.998;4.250;2024-02-28T00:54:57;101688.78;;;4.33;78.50
13593;BME280;6867;50.998;4.250;2024-02-28T00:57:25;101682.66;;;4.13;79.22
13593;BME280;6867;50.998;4.250;2024-02-28T00:59:51;101684.22;;;4.06;79.00
13593;BME280;6867;50.998;4.250;2024-02-28T01:02:20;101697.09;;;4.01;79.98
13593;BME280;6867;50.998;4.250;2024-02-28T01:04:46;101694.88;;;4.06;79.29
13593;BME280;6867;50.998;4.250;2024-02-28T01:07:13;101684.53;;;3.93;79.61
13593;BME280;6867;50.998;4.250;2024-02-28T01:09:41;101694.03;;;3.86;79.68
13593;BME280;6867;50.998;4.250;2024-02-28T01:12:07;101687.19;;;3.74;80.54
13593;BME280;6867;50.998;4.250;2024-02-28T01:14:34;101691.09;;;3.80;80.96
13593;BME280;6867;50.998;4.250;2024-02-28T01:17:01;101677.94;;;3.97;80.67
13593;BME280;6867;50.998;4.250;2024-02-28T01:19:27;101666.03;;;4.11;80.06
13593;BME280;6867;50.998;4.250;2024-02-28T01:21:54;101666.06;;;4.02;79.38
13593;BME280;6867;50.998;4.250;2024-02-28T01:24:21;101658.78;;;3.94;79.81
13593;BME280;6867;50.998;4.250;2024-02-28T01:26:49;101673.34;;;3.70;79.89
13593;BME280;6867;50.998;4.250;2024-02-28T01:29:16;101680.16;;;3.92;80.40
13593;BME280;6867;50.998;4.250;2024-02-28T01:31:42;101668.03;;;3.90;80.50
13593;BME280;6867;50.998;4.250;2024-02-28T01:34:10;101678.78;;;3.88;80.50
13593;BME280;6867;50.998;4.250;2024-02-28T01:36:36;101666.88;;;3.92;80.31
13593;BME280;6867;50.998;4.250;2024-02-28T01:39:03;101667.19;;;3.70;79.73
13593;BME280;6867;50.998;4.250;2024-02-28T01:41:30;101686.47;;;3.72;80.73
13593;BME280;6867;50.998;4.250;2024-02-28T01:43:58;101686.47;;;3.91;79.92
13593;BME280;6867;50.998;4.250;2024-02-28T01:46:27;101687.34;;;3.72;80.49
13593;BME280;6867;50.998;4.250;2024-02-28T01:48:54;101687.34;;;3.82;80.11
13593;BME280;6867;50.998;4.250;2024-02-28T01:51:22;101688.44;;;3.70;81.03
13593;BME280;6867;50.998;4.250;2024-02-28T01:53:51;101693.75;;;3.50;81.35
13593;BME280;6867;50.998;4.250;2024-02-28T01:56:19;101700.34;;;3.56;81.76
13593;BME280;6867;50.998;4.250;2024-02-28T01:58:47;101684.25;;;3.48;81.51
13593;BME280;6867;50.998;4.250;2024-02-28T02:01:16;101695.56;;;3.50;81.33
13593;BME280;6867;50.998;4.250;2024-02-28T02:03:43;101690.13;;;3.71;80.94
13593;BME280;6867;50.998;4.250;2024-02-28T02:06:10;101684.13;;;3.69;80.88
13593;BME280;6867;50.998;4.250;2024-02-28T02:08:38;101666.06;;;3.63;80.59
13593;BME280;6867;50.998;4.250;2024-02-28T02:11:05;101660.06;;;3.61;80.39
13593;BME280;6867;50.998;4.250;2024-02-28T02:13:32;101666.38;;;3.60;80.41
13593;BME280;6867;50.998;4.250;2024-02-28T02:16:00;101666.34;;;3.50;79.93
13593;BME280;6867;50.998;4.250;2024-02-28T02:18:28;101678.81;;;3.40;80.69
13593;BME280;6867;50.998;4.250;2024-02-28T02:21:00;101673.19;;;3.33;80.88
13593;BME280;6867;50.998;4.250;2024-02-28T02:23:30;101689.69;;;3.46;81.27
13593;BME280;6867;50.998;4.250;2024-02-28T02:25:57;101690.84;;;3.73;80.84
13593;BME280;6867;50.998;4.250;2024-02-28T02:28:24;101670.53;;;3.72;80.03
13593;BME280;6867;50.998;4.250;2024-02-28T02:30:51;101660.78;;;3.43;80.56
13593;BME280;6867;50.998;4.250;2024-02-28T02:33:17;101671.25;;;3.35;80.65
13593;BME280;6867;50.998;4.250;2024-02-28T02:35:44;101676.13;;;3.30;80.70
13593;BME280;6867;50.998;4.250;2024-02-28T02:38:11;101674.47;;;3.39;80.45
13593;BME280;6867;50.998;4.250;2024-02-28T02:40:39;101667.19;;;3.31;80.42
13593;BME280;6867;50.998;4.250;2024-02-28T02:43:05;101681.56;;;3.29;81.35
13593;BME280;6867;50.998;4.250;2024-02-28T02:45:32;101685.66;;;3.52;80.74
13593;BME280;6867;50.998;4.250;2024-02-28T02:47:59;101672.09;;;3.45;80.38
13593;BME280;6867;50.998;4.250;2024-02-28T02:50:25;101680.59;;;3.30;81.03
13593;BME280;6867;50.998;4.250;2024-02-28T02:52:52;101693.47;;;3.54;81.56
13593;BME280;6867;50.998;4.250;2024-02-28T02:55:19;101676.00;;;3.51;81.36
13593;BME280;6867;50.998;4.250;2024-02-28T02:57:47;101689.72;;;3.66;81.60
13593;BME280;6867;50.998;4.250;2024-02-28T03:00:14;101683.81;;;3.72;80.53
13593;BME280;6867;50.998;4.250;2024-02-28T03:02:40;101682.69;;;3.84;80.96
13593;BME280;6867;50.998;4.250;2024-02-28T03:05:07;101673.78;;;3.66;79.96
13593;BME280;6867;50.998;4.250;2024-02-28T03:07:34;101675.56;;;3.75;79.89
13593;BME280;6867;50.998;4.250;2024-02-28T03:10:01;101671.66;;;3.50;80.32
13593;BME280;6867;50.998;4.250;2024-02-28T03:12:28;101674.47;;;3.58;80.27
13593;BME280;6867;50.998;4.250;2024-02-28T03:14:56;101672.66;;;3.49;80.55
13593;BME280;6867;50.998;4.250;2024-02-28T03:17:23;101688.88;;;3.56;80.87
13593;BME280;6867;50.998;4.250;2024-02-28T03:19:50;101676.41;;;3.46;80.46
13593;BME280;6867;50.998;4.250;2024-02-28T03:22:16;101672.22;;;3.34;80.88
13593;BME280;6867;50.998;4.250;2024-02-28T03:24:43;101683.13;;;3.50;81.42
13593;BME280;6867;50.998;4.250;2024-02-28T03:27:10;101683.72;;;3.64;80.47
13593;BME280;6867;50.998;4.250;2024-02-28T03:29:36;101668.72;;;3.63;80.70
13593;BME280;6867;50.998;4.250;2024-02-28T03:32:05;101676.69;;;3.63;80.46
13593;BME280;6867;50.998;4.250;2024-02-28T03:34:32;101673.22;;;3.53;80.47
13593;BME280;6867;50.998;4.250;2024-02-28T03:36:59;101671.97;;;3.47;80.52
13593;BME280;6867;50.998;4.250;2024-02-28T03:39:25;101663.84;;;3.58;80.17
13593;BME280;6867;50.998;4.250;2024-02-28T03:41:52;101674.47;;;3.58;80.72
13593;BME280;6867;50.998;4.250;2024-02-28T03:44:19;101681.19;;;3.53;80.56
13593;BME280;6867;50.998;4.250;2024-02-28T03:46:46;101678.94;;;3.29;81.02
13593;BME280;6867;50.998;4.250;2024-02-28T03:49:14;101684.34;;;3.17;81.49
13593;BME280;6867;50.998;4.250;2024-02-28T03:51:41;101686.31;;;3.15;81.68
13593;BME280;6867;50.998;4.250;2024-02-28T03:54:08;101689.66;;;3.17;82.33
13593;BME280;6867;50.998;4.250;2024-02-28T03:56:35;101682.00;;;3.14;81.87
13593;BME280;6867;50.998;4.250;2024-02-28T03:59:01;101673.75;;;3.27;81.31
13593;BME280;6867;50.998;4.250;2024-02-28T04:01:29;101657.94;;;3.25;80.42
13593;BME280;6867;50.998;4.250;2024-02-28T04:03:56;101655.84;;;3.29;80.56
13593;BME280;6867;50.998;4.250;2024-02-28T04:06:24;101652.53;;;3.27;80.66
13593;BME280;6867;50.998;4.250;2024-02-28T04:08:50;101665.78;;;3.46;80.82
13593;BME280;6867;50.998;4.250;2024-02-28T04:11:17;101659.06;;;3.42;80.24
13593;BME280;6867;50.998;4.250;2024-02-28T04:13:44;101664.97;;;3.27;81.51
13593;BME280;6867;50.998;4.250;2024-02-28T04:16:11;101682.44;;;3.39;82.08
13593;BME280;6867;50.998;4.250;2024-02-28T04:18:37;101686.91;;;3.48;81.58
13593;BME280;6867;50.998;4.250;2024-02-28T04:21:04;101695.72;;;3.48;81.43
13593;BME280;6867;50.998;4.250;2024-02-28T04:23:32;101676.56;;;3.64;80.84
13593;BME280;6867;50.998;4.250;2024-02-28T04:25:59;101665.38;;;3.61;80.57
13593;BME280;6867;50.998;4.250;2024-02-28T04:28:25;101663.56;;;3.61;80.22
13593;BME280;6867;50.998;4.250;2024-02-28T04:30:52;101678.69;;;3.61;80.78
13593;BME280;6867;50.998;4.250;2024-02-28T04:33:19;101688.88;;;3.65;80.53
13593;BME280;6867;50.998;4.250;2024-02-28T04:35:45;101680.34;;;3.81;80.85
13593;BME280;6867;50.998;4.250;2024-02-28T04:38:12;101671.53;;;3.42;80.63
13593;BME280;6867;50.998;4.250;2024-02-28T04:40:40;101683.28;;;3.78;80.54
13593;BME280;6867;50.998;4.250;2024-02-28T04:43:07;101690.41;;;3.87;80.66
13593;BME280;6867;50.998;4.250;2024-02-28T04:45:33;101683.41;;;3.86;80.89
13593;BME280;6867;50.998;4.250;2024-02-28T04:48:01;101675.31;;;3.78;80.41
13593;BME280;6867;50.998;4.250;2024-02-28T04:50:27;101670.84;;;3.69;80.26
13593;BME280;6867;50.998;4.250;2024-02-28T04:52:54;101674.06;;;3.72;80.31
13593;BME280;6867;50.998;4.250;2024-02-28T04:55:21;101676.00;;;3.70;80.02
13593;BME280;6867;50.998;4.250;2024-02-28T04:57:49;101685.38;;;3.65;80.15
13593;BME280;6867;50.998;4.250;2024-02-28T05:00:16;101683.00;;;3.62;79.92
13593;BME280;6867;50.998;4.250;2024-02-28T05:02:42;101691.81;;;3.53;79.85
13593;BME280;6867;50.998;4.250;2024-02-28T05:05:09;101718.38;;;3.62;81.01
13593;BME280;6867;50.998;4.250;2024-02-28T05:07:36;101713.06;;;3.62;81.13
13593;BME280;6867;50.998;4.250;2024-02-28T05:10:03;101719.34;;;3.61;80.84
13593;BME280;6867;50.998;4.250;2024-02-28T05:12:29;101736.56;;;3.57;81.85
13593;BME280;6867;50.998;4.250;2024-02-28T05:14:57;101726.03;;;3.46;81.48
13593;BME280;6867;50.998;4.250;2024-02-28T05:17:24;101743.44;;;3.60;82.29
13593;BME280;6867;50.998;4.250;2024-02-28T05:19:51;101736.00;;;3.73;81.27
13593;BME280;6867;50.998;4.250;2024-02-28T05:22:17;101722.28;;;3.48;81.36
13593;BME280;6867;50.998;4.250;2024-02-28T05:24:45;101737.13;;;3.61;81.58
13593;BME280;6867;50.998;4.250;2024-02-28T05:27:12;101739.78;;;3.70;81.55
13593;BME280;6867;50.998;4.250;2024-02-28T05:29:38;101754.06;;;3.89;81.39
13593;BME280;6867;50.998;4.250;2024-02-28T05:32:08;101754.34;;;3.86;82.29
13593;BME280;6867;50.998;4.250;2024-02-28T05:34:34;101757.25;;;4.12;81.75
13593;BME280;6867;50.998;4.250;2024-02-28T05:37:01;101757.97;;;4.23;81.69
13593;BME280;6867;50.998;4.250;2024-02-28T05:39:28;101752.06;;;4.20;82.12
13593;BME280;6867;50.998;4.250;2024-02-28T05:41:56;101750.25;;;4.20;81.61
13593;BME280;6867;50.998;4.250;2024-02-28T05:44:22;101746.84;;;4.38;81.38
13593;BME280;6867;50.998;4.250;2024-02-28T05:46:50;101750.78;;;4.43;80.89
13593;BME280;6867;50.998;4.250;2024-02-28T05:49:18;101728.41;;;4.36;80.71
13593;BME280;6867;50.998;4.250;2024-02-28T05:51:45;101739.03;;;4.36;81.30
13593;BME280;6867;50.998;4.250;2024-02-28T05:54:12;101737.31;;;4.45;80.73
13593;BME280;6867;50.998;4.250;2024-02-28T05:56:39;101734.50;;;4.46;80.64
13593;BME280;6867;50.998;4.250;2024-02-28T05:59:06;101741.34;;;4.68;81.04
13593;BME280;6867;50.998;4.250;2024-02-28T06:01:32;101735.25;;;4.76;81.36
13593;BME280;6867;50.998;4.250;2024-02-28T06:03:59;101716.81;;;4.65;81.19
13593;BME280;6867;50.998;4.250;2024-02-28T06:06:28;101725.13;;;4.52;80.81
13593;BME280;6867;50.998;4.250;2024-02-28T06:08:55;101744.69;;;4.70;80.78
13593;BME280;6867;50.998;4.250;2024-02-28T06:11:21;101754.25;;;4.91;81.60
13593;BME280;6867;50.998;4.250;2024-02-28T06:13:50;101748.31;;;5.07;81.43
13593;BME280;6867;50.998;4.250;2024-02-28T06:16:17;101753.94;;;5.04;81.40
13593;BME280;6867;50.998;4.250;2024-02-28T06:18:44;101767.91;;;5.06;81.82
13593;BME280;6867;50.998;4.250;2024-02-28T06:21:12;101761.66;;;4.97;81.31
13593;BME280;6867;50.998;4.250;2024-02-28T06:23:40;101772.63;;;5.21;81.79
13593;BME280;6867;50.998;4.250;2024-02-28T06:26:06;101762.22;;;5.28;81.34
13593;BME280;6867;50.998;4.250;2024-02-28T06:28:40;101763.63;;;5.50;81.38
13593;BME280;6867;50.998;4.250;2024-02-28T06:31:11;101745.03;;;5.40;80.78
13593;BME280;6867;50.998;4.250;2024-02-28T06:33:38;101738.59;;;5.15;80.81
13593;BME280;6867;50.998;4.250;2024-02-28T06:36:05;101751.88;;;4.97;80.93
13593;BME280;6867;50.998;4.250;2024-02-28T06:38:32;101757.31;;;4.68;82.09
13593;BME280;6867;50.998;4.250;2024-02-28T06:41:01;101772.00;;;4.72;81.42
13593;BME280;6867;50.998;4.250;2024-02-28T06:43:28;101783.44;;;4.83;82.16
13593;BME280;6867;50.998;4.250;2024-02-28T06:45:54;101801.78;;;4.86;82.62
13593;BME280;6867;50.998;4.250;2024-02-28T06:48:21;101810.56;;;4.96;82.80
13593;BME280;6867;50.998;4.250;2024-02-28T06:50:48;101821.28;;;5.23;82.42
13593;BME280;6867;50.998;4.250;2024-02-28T06:53:15;101820.72;;;5.47;82.73
13593;BME280;6867;50.998;4.250;2024-02-28T06:55:42;101829.25;;;5.51;82.43
13593;BME280;6867;50.998;4.250;2024-02-28T06:58:12;101836.03;;;5.45;83.60
13593;BME280;6867;50.998;4.250;2024-02-28T07:00:38;101850.44;;;5.53;83.87
13593;BME280;6867;50.998;4.250;2024-02-28T07:03:05;101857.34;;;5.73;84.51
13593;BME280;6867;50.998;4.250;2024-02-28T07:05:32;101860.75;;;5.93;84.51
13593;BME280;6867;50.998;4.250;2024-02-28T07:07:59;101872.91;;;6.23;84.62
13593;BME280;6867;50.998;4.250;2024-02-28T07:10:26;101858.41;;;6.26;84.49
13593;BME280;6867;50.998;4.250;2024-02-28T07:12:52;101870.56;;;6.64;84.19
13593;BME280;6867;50.998;4.250;2024-02-28T07:15:20;101855.91;;;6.68;83.71
13593;BME280;6867;50.998;4.250;2024-02-28T07:17:47;101850.44;;;6.69;83.61
13593;BME280;6867;50.998;4.250;2024-02-28T07:20:14;101846.19;;;6.59;83.32
13593;BME280;6867;50.998;4.250;2024-02-28T07:22:42;101855.25;;;6.66;83.49
13593;BME280;6867;50.998;4.250;2024-02-28T07:25:09;101859.53;;;6.85;83.31
13593;BME280;6867;50.998;4.250;2024-02-28T07:27:36;101863.53;;;7.07;82.98
13593;BME280;6867;50.998;4.250;2024-02-28T07:30:03;101851.38;;;7.12;82.59
13593;BME280;6867;50.998;4.250;2024-02-28T07:32:33;101840.19;;;6.83;82.53
13593;BME280;6867;50.998;4.250;2024-02-28T07:35:00;101849.69;;;6.85;82.58
13593;BME280;6867;50.998;4.250;2024-02-28T07:37:27;101845.09;;;6.95;82.59
13593;BME280;6867;50.998;4.250;2024-02-28T07:39:53;101846.91;;;7.21;82.29
13593;BME280;6867;50.998;4.250;2024-02-28T07:42:20;101849.41;;;7.22;82.19
13593;BME280;6867;50.998;4.250;2024-02-28T07:44:47;101843.09;;;6.97;82.08
13593;BME280;6867;50.998;4.250;2024-02-28T07:47:14;101864.91;;;7.11;82.36
13593;BME280;6867;50.998;4.250;2024-02-28T07:49:43;101871.28;;;7.18;82.34
13593;BME280;6867;50.998;4.250;2024-02-28T07:52:10;101871.63;;;7.23;82.16
13593;BME280;6867;50.998;4.250;2024-02-28T07:54:36;101863.53;;;7.07;82.16
13593;BME280;6867;50.998;4.250;2024-02-28T07:57:03;101872.22;;;7.09;82.38
13593;BME280;6867;50.998;4.250;2024-02-28T07:59:30;101885.94;;;7.14;82.61
13593;BME280;6867;50.998;4.250;2024-02-28T08:01:56;101880.97;;;6.93;83.02
13593;BME280;6867;50.998;4.250;2024-02-28T08:04:23;101894.19;;;7.20;83.17
13593;BME280;6867;50.998;4.250;2024-02-28T08:06:51;101899.00;;;7.51;82.97
13593;BME280;6867;50.998;4.250;2024-02-28T08:09:18;101897.59;;;7.39;82.55
13593;BME280;6867;50.998;4.250;2024-02-28T08:11:45;101911.63;;;7.67;82.08
13593;BME280;6867;50.998;4.250;2024-02-28T08:14:11;101904.66;;;7.82;81.86
13593;BME280;6867;50.998;4.250;2024-02-28T08:16:38;101908.38;;;7.97;81.82
13593;BME280;6867;50.998;4.250;2024-02-28T08:19:04;101903.03;;;7.97;81.74
13593;BME280;6867;50.998;4.250;2024-02-28T08:21:31;101910.41;;;7.95;81.43
13593;BME280;6867;50.998;4.250;2024-02-28T08:23:59;101915.59;;;8.05;81.64
13593;BME280;6867;50.998;4.250;2024-02-28T08:26:29;101900.88;;;8.09;81.65
13593;BME280;6867;50.998;4.250;2024-02-28T08:28:55;101915.84;;;8.28;81.74
13593;BME280;6867;50.998;4.250;2024-02-28T08:31:22;101912.44;;;8.18;82.02
13593;BME280;6867;50.998;4.250;2024-02-28T08:33:48;101908.59;;;8.12;81.67
13593;BME280;6867;50.998;4.250;2024-02-28T08:36:15;101920.66;;;8.16;81.69
13593;BME280;6867;50.998;4.250;2024-02-28T08:38:42;101925.56;;;8.37;81.76
13593;BME280;6867;50.998;4.250;2024-02-28T08:41:10;101925.84;;;8.26;81.86
13593;BME280;6867;50.998;4.250;2024-02-28T08:43:38;101921.81;;;8.14;81.98
13593;BME280;6867;50.998;4.250;2024-02-28T08:46:05;101924.41;;;8.40;82.28
13593;BME280;6867;50.998;4.250;2024-02-28T08:48:31;101924.25;;;8.50;82.33
13593;BME280;6867;50.998;4.250;2024-02-28T08:50:58;101921.09;;;8.62;82.14
13593;BME280;6867;50.998;4.250;2024-02-28T08:53:25;101921.75;;;8.64;81.63
13593;BME280;6867;50.998;4.250;2024-02-28T08:55:51;101910.88;;;8.90;81.46
13593;BME280;6867;50.998;4.250;2024-02-28T08:58:19;101924.22;;;9.23;81.48
13593;BME280;6867;50.998;4.250;2024-02-28T09:00:46;101929.72;;;9.38;80.89
13593;BME280;6867;50.998;4.250;2024-02-28T09:03:13;101926.44;;;9.03;80.35
13593;BME280;6867;50.998;4.250;2024-02-28T09:05:39;101938.59;;;9.38;81.24
13593;BME280;6867;50.998;4.250;2024-02-28T09:08:06;101923.03;;;9.34;79.71
13593;BME280;6867;50.998;4.250;2024-02-28T09:10:33;101929.50;;;9.56;80.08
13593;BME280;6867;50.998;4.250;2024-02-28T09:13:00;101935.97;;;9.69;79.54
13593;BME280;6867;50.998;4.250;2024-02-28T09:15:28;101924.31;;;9.93;79.04
13593;BME280;6867;50.998;4.250;2024-02-28T09:17:54;101932.19;;;9.56;80.10
13593;BME280;6867;50.998;4.250;2024-02-28T09:20:21;101935.41;;;9.43;80.69
13593;BME280;6867;50.998;4.250;2024-02-28T09:22:48;101938.31;;;9.72;79.78
13593;BME280;6867;50.998;4.250;2024-02-28T09:25:14;101923.03;;;9.81;78.76
13593;BME280;6867;50.998;4.250;2024-02-28T09:27:43;101938.38;;;10.04;78.52
13593;BME280;6867;50.998;4.250;2024-02-28T09:30:10;101933.91;;;10.50;77.76
13593;BME280;6867;50.998;4.250;2024-02-28T09:32:38;101910.22;;;10.54;77.06
13593;BME280;6867;50.998;4.250;2024-02-28T09:35:05;101907.78;;;10.82;76.10
13593;BME280;6867;50.998;4.250;2024-02-28T09:37:32;101890.50;;;10.99;75.51
13593;BME280;6867;50.998;4.250;2024-02-28T09:39:59;101902.78;;;11.16;75.79
13593;BME280;6867;50.998;4.250;2024-02-28T09:42:27;101865.78;;;11.04;74.60
13593;BME280;6867;50.998;4.250;2024-02-28T09:44:54;101876.34;;;11.35;74.15
13593;BME280;6867;50.998;4.250;2024-02-28T09:47:22;101854.25;;;11.54;73.29
13593;BME280;6867;50.998;4.250;2024-02-28T09:49:51;101873.19;;;11.46;73.53
13593;BME280;6867;50.998;4.250;2024-02-28T09:52:18;101845.56;;;11.37;72.99
13593;BME280;6867;50.998;4.250;2024-02-28T09:54:45;101879.28;;;12.42;71.98
13593;BME280;6867;50.998;4.250;2024-02-28T09:57:12;101814.88;;;14.06;67.56
13593;BME280;6867;50.998;4.250;2024-02-28T09:59:40;101726.91;;;14.69;64.02
13593;BME280;6867;50.998;4.250;2024-02-28T10:02:10;101695.13;;;15.86;60.80
13593;BME280;6867;50.998;4.250;2024-02-28T10:04:37;101676.88;;;16.25;59.13
13593;BME280;6867;50.998;4.250;2024-02-28T10:07:12;101706.47;;;17.07;58.29
13593;BME280;6867;50.998;4.250;2024-02-28T10:09:39;101688.34;;;16.46;58.13
13593;BME280;6867;50.998;4.250;2024-02-28T10:12:06;101679.19;;;16.83;57.10
13593;BME280;6867;50.998;4.250;2024-02-28T10:14:33;101700.69;;;16.85;57.23
13593;BME280;6867;50.998;4.250;2024-02-28T10:17:00;101703.91;;;16.75;56.82
13593;BME280;6867;50.998;4.250;2024-02-28T10:19:27;101716.34;;;16.83;56.89
13593;BME280;6867;50.998;4.250;2024-02-28T10:21:53;101691.28;;;16.44;56.85
13593;BME280;6867;50.998;4.250;2024-02-28T10:24:24;101705.13;;;16.98;56.40
13593;BME280;6867;50.998;4.250;2024-02-28T10:26:50;101701.13;;;17.30;55.72
13593;BME280;6867;50.998;4.250;2024-02-28T10:29:22;101706.56;;;14.47;59.74
13593;BME280;6867;50.998;4.250;2024-02-28T10:31:48;101808.22;;;13.06;64.44
13593;BME280;6867;50.998;4.250;2024-02-28T10:34:16;101856.53;;;13.29;65.68
13593;BME280;6867;50.998;4.250;2024-02-28T10:36:44;101866.22;;;12.88;67.18
13593;BME280;6867;50.998;4.250;2024-02-28T10:39:12;101871.34;;;13.39;67.14
13593;BME280;6867;50.998;4.250;2024-02-28T10:41:40;101855.88;;;12.92;67.33
13593;BME280;6867;50.998;4.250;2024-02-28T10:44:07;101856.47;;;13.22;66.93
13593;BME280;6867;50.998;4.250;2024-02-28T10:46:37;101850.25;;;13.21;66.79
13593;BME280;6867;50.998;4.250;2024-02-28T10:49:04;101881.63;;;13.29;66.99
13593;BME280;6867;50.998;4.250;2024-02-28T10:51:34;101772.81;;;15.92;61.00
13593;BME280;6867;50.998;4.250;2024-02-28T10:54:07;101736.84;;;16.79;58.33
13593;BME280;6867;50.998;4.250;2024-02-28T10:56:36;101716.03;;;17.28;56.97
13593;BME280;6867;50.998;4.250;2024-02-28T10:59:06;101701.81;;;17.14;56.46
13593;BME280;6867;50.998;4.250;2024-02-28T11:01:33;101705.47;;;17.50;56.07
13593;BME280;6867;50.998;4.250;2024-02-28T11:04:00;101706.34;;;17.02;56.38
13593;BME280;6867;50.998;4.250;2024-02-28T11:06:27;101675.69;;;16.39;56.66
13593;BME280;6867;50.998;4.250;2024-02-28T11:08:53;101704.66;;;17.19;56.07
13593;BME280;6867;50.998;4.250;2024-02-28T11:11:22;101681.53;;;17.58;55.08
13593;BME280;6867;50.998;4.250;2024-02-28T11:13:52;101690.81;;;17.39;55.41
13593;BME280;6867;50.998;4.250;2024-02-28T11:16:27;101695.72;;;17.72;54.99
13593;BME280;6867;50.998;4.250;2024-02-28T11:18:54;101657.03;;;17.47;54.59
13593;BME280;6867;50.998;4.250;2024-02-28T11:21:23;101673.16;;;17.00;55.37
13593;BME280;6867;50.998;4.250;2024-02-28T11:23:51;101658.56;;;17.42;54.92
13593;BME280;6867;50.998;4.250;2024-02-28T11:26:18;101671.44;;;17.47;54.85
13593;BME280;6867;50.998;4.250;2024-02-28T11:28:46;101658.28;;;17.62;54.41
13593;BME280;6867;50.998;4.250;2024-02-28T11:31:13;101671.97;;;18.45;53.27
13593;BME280;6867;50.998;4.250;2024-02-28T11:33:41;101662.84;;;18.04;53.67
13593;BME280;6867;50.998;4.250;2024-02-28T11:36:08;101675.50;;;18.10;53.92
13593;BME280;6867;50.998;4.250;2024-02-28T11:38:38;101669.94;;;18.05;53.76
13593;BME280;6867;50.998;4.250;2024-02-28T11:41:05;101652.50;;;17.71;53.97
13593;BME280;6867;50.998;4.250;2024-02-28T11:43:32;101683.94;;;17.36;55.23
13593;BME280;6867;50.998;4.250;2024-02-28T11:46:00;101671.34;;;17.84;53.98
13593;BME280;6867;50.998;4.250;2024-02-28T11:48:27;101683.41;;;18.35;53.55
13593;BME280;6867;50.998;4.250;2024-02-28T11:50:56;101624.56;;;17.82;53.43
13593;BME280;6867;50.998;4.250;2024-02-28T11:53:24;101649.59;;;17.96;53.88
13593;BME280;6867;50.998;4.250;2024-02-28T11:55:52;101666.97;;;18.18;53.83
13593;BME280;6867;50.998;4.250;2024-02-28T11:58:18;101673.13;;;18.25;53.77
13593;BME280;6867;50.998;4.250;2024-02-28T12:00:47;101689.94;;;18.10;54.37
13593;BME280;6867;50.998;4.250;2024-02-28T12:03:13;101703.94;;;19.30;52.59
13593;BME280;6867;50.998;4.250;2024-02-28T12:05:42;101656.66;;;19.19;51.84
13593;BME280;6867;50.998;4.250;2024-02-28T12:08:11;101605.25;;;18.30;52.17
13593;BME280;6867;50.998;4.250;2024-02-28T12:10:38;101619.81;;;18.24;52.49
13593;BME280;6867;50.998;4.250;2024-02-28T12:13:05;101650.50;;;19.12;51.88
13593;BME280;6867;50.998;4.250;2024-02-28T12:15:33;101646.47;;;18.86;52.10
13593;BME280;6867;50.998;4.250;2024-02-28T12:17:59;101621.84;;;19.09;51.58
13593;BME280;6867;50.998;4.250;2024-02-28T12:20:26;101646.59;;;18.79;52.34
13593;BME280;6867;50.998;4.250;2024-02-28T12:22:53;101656.13;;;19.22;51.90
13593;BME280;6867;50.998;4.250;2024-02-28T12:25:21;101624.56;;;19.09;51.72
13593;BME280;6867;50.998;4.250;2024-02-28T12:27:47;101646.91;;;19.23;51.69
13593;BME280;6867;50.998;4.250;2024-02-28T12:30:14;101624.34;;;18.82;51.89
13593;BME280;6867;50.998;4.250;2024-02-28T12:32:41;101627.25;;;18.17;53.39
13593;BME280;6867;50.998;4.250;2024-02-28T12:35:08;101589.19;;;18.17;52.62
13593;BME280;6867;50.998;4.250;2024-02-28T12:37:35;101640.91;;;19.09;51.86
13593;BME280;6867;50.998;4.250;2024-02-28T12:40:01;101594.94;;;18.96;51.46
13593;BME280;6867;50.998;4.250;2024-02-28T12:42:31;101617.34;;;19.15;51.53
13593;BME280;6867;50.998;4.250;2024-02-28T12:44:58;101578.94;;;18.71;51.28
13593;BME280;6867;50.998;4.250;2024-02-28T12:47:25;101627.34;;;19.26;51.45
13593;BME280;6867;50.998;4.250;2024-02-28T12:49:52;101619.59;;;19.35;51.30
13593;BME280;6867;50.998;4.250;2024-02-28T12:52:18;101596.34;;;19.27;50.81
13593;BME280;6867;50.998;4.250;2024-02-28T12:54:45;101605.13;;;19.17;51.27
13593;BME280;6867;50.998;4.250;2024-02-28T12:57:12;101584.72;;;18.75;51.66
13593;BME280;6867;50.998;4.250;2024-02-28T12:59:43;101611.00;;;18.69;52.19
13593;BME280;6867;50.998;4.250;2024-02-28T13:02:10;101636.56;;;19.08;51.74
13593;BME280;6867;50.998;4.250;2024-02-28T13:04:37;101599.66;;;18.60;52.11
13593;BME280;6867;50.998;4.250;2024-02-28T13:07:04;101589.91;;;18.24;52.25